Time;durP1;ratioP1;P1;durP2;ratioP2;P2;SDS_P1;SDS_P2;PMS_P1;PMS_P2;Temp;Humidity;BMP_temperature;BMP_pressure;BME280_temperature;BME280_humidity;BME280_pressure;Samples;Min_cycle;Max_cycle;Signal;HPM_P1;HPM_P2
2022/10/01 00:01:17;;;;;;;9.10;5.10;;;;;;;-145.18;100.00;46654.53;6212042;23;20446;-85
2022/10/01 00:03:43;;;;;;;8.13;6.00;;;;;;;-145.18;100.00;46652.59;6212231;23;20763;-83
2022/10/01 00:06:17;;;;;;;10.83;5.43;;;;;;;-145.18;100.00;46650.63;6212041;23;20481;-84
2022/10/01 00:08:47;;;;;;;9.00;6.30;;;;;;;-145.18;100.00;46650.63;6212660;23;20303;-84
2022/10/01 00:11:24;;;;;;;11.10;5.10;;;;;;;-145.18;100.00;46652.59;6212316;23;20000;-83
2022/10/01 00:13:50;;;;;;;6.60;5.67;;;;;;;-145.18;100.00;46648.69;6212250;23;20226;-84
2022/10/01 00:16:22;;;;;;;7.53;5.00;;;;;;;-145.18;100.00;46648.69;6212462;23;20016;-82
2022/10/01 00:18:48;;;;;;;6.67;5.47;;;;;;;-145.18;100.00;46654.53;6212233;23;20222;-82
2022/10/01 00:21:20;;;;;;;10.13;5.73;;;;;;;-145.18;100.00;46648.69;6212027;23;20013;-84
2022/10/01 00:23:45;;;;;;;8.87;6.03;;;;;;;-145.18;100.00;46646.72;6212579;23;20007;-84
2022/10/01 00:26:13;;;;;;;7.70;5.87;;;;;;;-145.18;100.00;46648.69;6211819;23;20538;-81
2022/10/01 00:28:40;;;;;;;8.97;6.90;;;;;;;-145.18;100.00;46648.69;6212591;23;20051;-77
2022/10/01 00:31:07;;;;;;;10.87;7.03;;;;;;;-145.18;100.00;46652.59;6185294;23;20269;-79
2022/10/01 00:33:32;;;;;;;17.03;6.97;;;;;;;-145.18;100.00;46648.69;6212786;23;20297;-76
2022/10/01 00:35:58;;;;;;;15.10;7.03;;;;;;;-145.18;100.00;46646.72;6212308;23;20567;-78
2022/10/01 00:38:23;;;;;;;12.87;6.73;;;;;;;-145.18;100.00;46644.78;6212310;23;20020;-80
2022/10/01 00:40:49;;;;;;;15.27;7.93;;;;;;;-145.18;100.00;46642.81;6212836;23;20012;-78
2022/10/01 00:43:23;;;;;;;10.10;7.73;;;;;;;-145.18;100.00;46648.69;6210789;23;20005;-78
2022/10/01 00:45:50;;;;;;;9.63;7.27;;;;;;;-145.18;100.00;46644.78;6213051;23;20230;-78
2022/10/01 00:48:16;;;;;;;12.07;7.23;;;;;;;-145.18;100.00;46650.63;6212007;23;20004;-81
2022/10/01 00:50:43;;;;;;;10.43;6.83;;;;;;;-145.18;100.00;46644.78;6211372;23;20009;-81
2022/10/01 00:53:11;;;;;;;8.20;6.30;;;;;;;-145.18;100.00;46646.72;6211834;23;20079;-82
2022/10/01 00:55:41;;;;;;;9.83;6.27;;;;;;;-145.18;100.00;46679.94;6212334;23;20245;-80
2022/10/01 00:58:09;;;;;;;7.63;5.97;;;;;;;-145.18;100.00;46642.81;6185474;23;20000;-80
2022/10/01 01:00:36;;;;;;;9.47;6.57;;;;;;;-145.18;100.00;46640.88;6212360;23;20703;-81
2022/10/01 01:03:03;;;;;;;7.87;6.50;;;;;;;-145.18;100.00;46642.81;6210130;23;20265;-81
2022/10/01 01:05:29;;;;;;;11.10;6.03;;;;;;;-145.18;100.00;46677.97;6212693;23;20283;-82
2022/10/01 01:07:54;;;;;;;8.73;5.80;;;;;;;-145.18;100.00;46640.88;6211892;23;20319;-81
2022/10/01 01:10:33;;;;;;;10.37;5.77;;;;;;;-145.18;100.00;46644.78;6212344;23;20389;-78
2022/10/01 01:13:19;;;;;;;8.80;5.80;;;;;;;-145.18;100.00;46640.88;6211423;23;20000;-78
2022/10/01 01:16:08;;;;;;;6.03;5.25;;;;;;;-145.18;100.00;46642.81;6212449;23;20427;-78
2022/10/01 01:18:40;;;;;;;6.50;5.10;;;;;;;-145.18;100.00;46640.88;6212466;23;20050;-77
2022/10/01 01:21:19;;;;;;;8.47;6.00;;;;;;;-145.18;100.00;46644.78;6211811;23;20321;-76
2022/10/01 01:24:22;;;;;;;7.17;5.00;;;;;;;-145.18;100.00;46640.88;6212350;23;20218;-77
2022/10/01 01:27:18;;;;;;;7.00;4.73;;;;;;;-145.18;100.00;46640.88;6211915;23;20016;-80
2022/10/01 01:30:03;;;;;;;6.93;4.10;;;;;;;-145.18;100.00;46646.72;6212347;23;20257;-80
2022/10/01 01:32:37;;;;;;;4.90;4.20;;;;;;;-145.18;100.00;46644.78;6211936;23;20552;-79
2022/10/01 01:35:06;;;;;;;4.73;4.13;;;;;;;-145.18;100.00;46642.81;6212026;23;20226;-81
2022/10/01 01:37:37;;;;;;;6.93;4.03;;;;;;;-145.18;100.00;46642.81;6211677;23;20234;-81
2022/10/01 01:40:05;;;;;;;5.13;3.63;;;;;;;-145.18;100.00;46679.94;6212433;23;20321;-83
2022/10/01 01:42:36;;;;;;;5.70;4.20;;;;;;;-145.18;100.00;46640.88;6210512;23;20270;-85
2022/10/01 01:45:05;;;;;;;5.90;3.83;;;;;;;-145.18;100.00;46642.81;6212447;23;20234;-84
2022/10/01 01:47:31;;;;;;;5.70;4.20;;;;;;;-145.18;100.00;46640.88;6212115;23;20230;-81
2022/10/01 01:50:01;;;;;;;5.80;3.80;;;;;;;-145.18;100.00;46644.78;6185587;23;20262;-79
2022/10/01 01:52:26;;;;;;;5.20;3.67;;;;;;;-145.18;100.00;46642.81;6213418;23;20218;-79
2022/10/01 01:54:53;;;;;;;4.97;3.30;;;;;;;-145.18;100.00;46640.88;6214172;23;20334;-79
2022/10/01 01:57:19;;;;;;;5.30;3.50;;;;;;;-145.18;100.00;46640.88;6213438;23;20016;-79
2022/10/01 01:59:45;;;;;;;6.67;3.33;;;;;;;-145.18;100.00;46642.81;6213981;23;20226;-78
2022/10/01 02:02:38;;;;;;;5.93;3.73;;;;;;;-145.18;100.00;46679.94;6177166;22;20262;-79
2022/10/01 02:05:08;;;;;;;3.97;3.30;;;;;;;-145.18;100.00;46644.78;6208693;23;20353;-79
2022/10/01 02:08:08;;;;;;;3.40;3.00;;;;;;;-145.18;100.00;46642.81;6213613;23;20230;-79
2022/10/01 02:10:51;;;;;;;3.90;3.20;;;;;;;-145.18;100.00;46677.97;6213777;23;20265;-79
2022/10/01 02:13:37;;;;;;;4.17;3.40;;;;;;;-145.18;100.00;46660.41;6213166;23;20302;-80
2022/10/01 02:16:13;;;;;;;4.93;3.37;;;;;;;-145.18;100.00;46677.97;6213779;23;20241;-79
2022/10/01 02:19:16;;;;;;;5.33;3.43;;;;;;;-145.18;100.00;46640.88;6213351;23;20231;-79
2022/10/01 02:21:54;;;;;;;4.47;3.03;;;;;;;-145.18;100.00;46642.81;6214015;23;20222;-79
2022/10/01 02:24:25;;;;;;;6.17;2.70;;;;;;;-145.18;100.00;46677.97;6213998;23;20222;-79
2022/10/01 02:26:54;;;;;;;4.93;3.07;;;;;;;-145.18;100.00;46638.91;6213439;23;20306;-78
2022/10/01 02:29:22;;;;;;;3.73;2.90;;;;;;;-145.18;100.00;46642.81;6213510;23;20258;-78
2022/10/01 02:31:49;;;;;;;3.27;2.77;;;;;;;-145.18;100.00;46677.97;6213744;23;20234;-78
2022/10/01 02:34:17;;;;;;;4.03;2.57;;;;;;;-145.18;100.00;46677.97;6213618;23;20234;-78
2022/10/01 02:36:44;;;;;;;4.77;2.87;;;;;;;-145.18;100.00;46638.91;6212337;23;20303;-78
2022/10/01 02:39:14;;;;;;;2.57;2.33;;;;;;;-145.18;100.00;46677.97;6213269;23;20233;-78
2022/10/01 02:41:44;;;;;;;3.47;2.33;;;;;;;-145.18;100.00;46677.97;6213957;23;20256;-78
2022/10/01 02:44:21;;;;;;;4.37;2.57;;;;;;;-145.18;100.00;46640.88;6213270;23;20257;-78
2022/10/01 02:47:00;;;;;;;3.83;2.70;;;;;;;-145.18;100.00;46677.97;6212036;23;20000;-78
2022/10/01 02:49:27;;;;;;;3.40;3.10;;;;;;;-145.18;100.00;46676.03;6213711;23;20012;-78
2022/10/01 02:52:07;;;;;;;4.07;2.60;;;;;;;-145.18;100.00;46660.41;6213733;23;20280;-78
2022/10/01 02:54:49;;;;;;;2.90;2.17;;;;;;;-145.18;100.00;46677.97;6213831;23;20278;-78
2022/10/01 02:57:28;;;;;;;2.60;2.40;;;;;;;-145.18;100.00;46636.94;6211071;23;20015;-77
2022/10/01 03:00:00;;;;;;;3.47;2.70;;;;;;;-145.18;100.00;46660.41;6211974;23;20008;-77
2022/10/01 03:02:27;;;;;;;3.17;2.57;;;;;;;-145.18;100.00;46636.94;6212569;23;20003;-77
2022/10/01 03:04:55;;;;;;;4.07;2.67;;;;;;;-145.18;100.00;46676.03;6213882;23;20500;-77
2022/10/01 03:07:21;;;;;;;4.80;2.30;;;;;;;-145.18;100.00;46660.41;6212771;23;20384;-77
2022/10/01 03:09:46;;;;;;;4.63;2.53;;;;;;;-145.18;100.00;46642.81;6213499;23;20004;-77
2022/10/01 03:12:11;;;;;;;4.10;2.70;;;;;;;-145.18;100.00;46660.41;6212835;23;20115;-77
2022/10/01 03:14:38;;;;;;;3.03;2.43;;;;;;;-145.18;100.00;46677.97;6211913;23;20369;-78
2022/10/01 03:17:05;;;;;;;4.10;3.03;;;;;;;-145.18;100.00;46660.41;6212701;23;20062;-78
2022/10/01 03:19:30;;;;;;;3.97;2.23;;;;;;;-145.18;100.00;46640.88;6213094;23;20023;-78
2022/10/01 03:21:56;;;;;;;3.13;2.23;;;;;;;-145.18;100.00;46660.41;6213092;23;20040;-78
2022/10/01 03:24:21;;;;;;;6.43;2.30;;;;;;;-145.18;100.00;46676.03;6236194;23;20008;-78
2022/10/01 03:26:46;;;;;;;2.73;2.37;;;;;;;-145.18;100.00;46638.91;6211489;23;20009;-78
2022/10/01 03:29:12;;;;;;;3.47;3.03;;;;;;;-145.18;100.00;46660.41;6211905;23;20017;-78
2022/10/01 03:31:37;;;;;;;4.53;3.10;;;;;;;-145.18;100.00;46638.91;6213327;23;20096;-77
2022/10/01 03:34:03;;;;;;;2.77;2.57;;;;;;;-145.18;100.00;46660.41;6212235;23;20434;-78
2022/10/01 03:36:28;;;;;;;4.20;2.60;;;;;;;-145.18;100.00;46636.94;6213037;23;20035;-77
2022/10/01 03:38:54;;;;;;;3.47;2.97;;;;;;;-145.18;100.00;46676.03;6212456;23;20016;-78
2022/10/01 03:41:19;;;;;;;2.80;2.50;;;;;;;-145.18;100.00;46638.91;6212709;23;20032;-78
2022/10/01 03:43:45;;;;;;;3.20;2.90;;;;;;;-145.18;100.00;46636.94;6212406;23;20015;-78
2022/10/01 03:46:10;;;;;;;3.50;2.97;;;;;;;-145.18;100.00;46638.91;6212723;23;20070;-78
2022/10/01 03:48:36;;;;;;;4.00;3.60;;;;;;;-145.18;100.00;46636.94;6210343;23;20012;-78
2022/10/01 03:51:02;;;;;;;3.40;3.10;;;;;;;-145.18;100.00;46644.78;6212644;23;20493;-79
2022/10/01 03:53:27;;;;;;;3.60;3.30;;;;;;;-145.18;100.00;46642.81;6212290;23;20402;-78
2022/10/01 03:55:53;;;;;;;4.83;3.10;;;;;;;-145.18;100.00;46644.78;6212758;23;20013;-78
2022/10/01 03:58:19;;;;;;;5.90;3.60;;;;;;;-145.18;100.00;46642.81;6212154;23;20451;-78
2022/10/01 04:00:46;;;;;;;4.47;3.73;;;;;;;-145.18;100.00;46642.81;6212900;23;20040;-78
2022/10/01 04:03:15;;;;;;;5.60;3.50;;;;;;;-145.18;100.00;46640.88;6209875;23;20067;-78
2022/10/01 04:05:42;;;;;;;4.77;3.93;;;;;;;-145.18;100.00;46638.91;6212691;23;20013;-78
2022/10/01 04:08:07;;;;;;;4.37;3.97;;;;;;;-145.18;100.00;46640.88;6212358;23;20008;-78
2022/10/01 04:10:33;;;;;;;4.93;4.53;;;;;;;-145.18;100.00;46644.78;6212819;23;20032;-78
2022/10/01 04:12:59;;;;;;;4.93;4.17;;;;;;;-145.18;100.00;46640.88;6212384;23;20012;-78
2022/10/01 04:15:24;;;;;;;6.13;4.60;;;;;;;-145.18;100.00;46640.88;6208933;23;20333;-79
2022/10/01 04:17:50;;;;;;;4.63;4.00;;;;;;;-145.18;100.00;46642.81;6211582;23;20017;-78
2022/10/01 04:20:16;;;;;;;4.37;3.77;;;;;;;-145.18;100.00;46642.81;6211895;23;20373;-79
2022/10/01 04:22:41;;;;;;;7.13;4.20;;;;;;;-145.18;100.00;46638.91;6211600;23;20060;-78
2022/10/01 04:25:11;;;;;;;6.27;4.90;;;;;;;-145.18;100.00;46642.81;6211779;23;20015;-79
2022/10/01 04:27:38;;;;;;;6.33;4.83;;;;;;;-145.18;100.00;46638.91;6211625;23;20500;-78
2022/10/01 04:30:05;;;;;;;5.13;4.67;;;;;;;-145.18;100.00;46638.91;6212031;23;20035;-78
2022/10/01 04:32:31;;;;;;;5.33;4.83;;;;;;;-145.18;100.00;46646.72;6211451;23;20036;-78
2022/10/01 04:34:56;;;;;;;5.80;5.20;;;;;;;-145.18;100.00;46677.97;6207875;23;20014;-77
2022/10/01 04:37:22;;;;;;;6.10;5.50;;;;;;;-145.18;100.00;46642.81;6234112;23;20174;-78
2022/10/01 04:39:48;;;;;;;5.63;5.10;;;;;;;-145.18;100.00;46640.88;6212003;23;20032;-78
2022/10/01 04:42:14;;;;;;;6.07;5.10;;;;;;;-145.18;100.00;46640.88;6210859;23;20441;-78
2022/10/01 04:44:40;;;;;;;5.83;4.90;;;;;;;-145.18;100.00;46646.72;6211299;23;20008;-78
2022/10/01 04:47:06;;;;;;;5.37;4.70;;;;;;;-145.18;100.00;46640.88;6210653;23;20039;-78
2022/10/01 04:49:32;;;;;;;5.20;4.77;;;;;;;-145.18;100.00;46646.72;6210831;23;20005;-77
2022/10/01 04:52:00;;;;;;;7.80;5.27;;;;;;;-145.18;100.00;46640.88;6236243;23;20456;-77
2022/10/01 04:54:26;;;;;;;6.83;5.30;;;;;;;-145.18;100.00;46640.88;6211616;23;20393;-78
2022/10/01 04:56:51;;;;;;;7.73;5.47;;;;;;;-145.18;100.00;46640.88;6211947;23;20004;-78
2022/10/01 04:59:17;;;;;;;6.53;5.57;;;;;;;-145.18;100.00;46638.91;6211332;23;20009;-78
2022/10/01 05:01:43;;;;;;;7.37;5.47;;;;;;;-145.18;100.00;46640.88;6212241;23;20012;-77
2022/10/01 05:04:08;;;;;;;10.53;6.73;;;;;;;-145.18;100.00;46642.81;6210709;23;20026;-78
2022/10/01 05:06:34;;;;;;;7.97;6.23;;;;;;;-145.18;100.00;46642.81;6212534;23;20508;-77
2022/10/01 05:08:59;;;;;;;6.93;6.20;;;;;;;-145.18;100.00;46638.91;6211757;23;20013;-77
2022/10/01 05:11:25;;;;;;;8.93;5.90;;;;;;;-145.18;100.00;46642.81;6212175;23;20015;-77
2022/10/01 05:13:50;;;;;;;6.70;6.00;;;;;;;-145.18;100.00;46646.72;6211505;23;20374;-77
2022/10/01 05:16:16;;;;;;;8.43;6.67;;;;;;;-145.18;100.00;46640.88;6210040;23;20037;-78
2022/10/01 05:18:41;;;;;;;8.87;7.03;;;;;;;-145.18;100.00;46642.81;6208877;23;20036;-77
2022/10/01 05:21:07;;;;;;;9.53;6.60;;;;;;;-145.18;100.00;46644.78;6235264;23;20319;-78
2022/10/01 05:23:32;;;;;;;9.70;7.07;;;;;;;-145.18;100.00;46644.78;6207512;23;20009;-78
2022/10/01 05:25:59;;;;;;;7.83;7.10;;;;;;;-145.18;100.00;46642.81;6208009;23;20009;-78
2022/10/01 05:28:25;;;;;;;11.17;7.53;;;;;;;-145.18;100.00;46644.78;6211974;23;20050;-78
2022/10/01 05:30:52;;;;;;;14.97;8.90;;;;;;;-145.18;100.00;46642.81;6236952;23;20008;-78
2022/10/01 05:33:18;;;;;;;9.23;8.33;;;;;;;-145.18;100.00;46642.81;6211148;23;20013;-78
2022/10/01 05:35:43;;;;;;;11.77;8.30;;;;;;;-145.18;100.00;46640.88;6213576;23;20488;-77
2022/10/01 05:38:09;;;;;;;9.73;8.73;;;;;;;-145.18;100.00;46642.81;6212510;23;20013;-78
2022/10/01 05:40:35;;;;;;;10.80;8.50;;;;;;;-145.18;100.00;46640.88;6213890;23;20016;-78
2022/10/01 05:43:03;;;;;;;11.83;8.73;;;;;;;-145.18;100.00;46646.72;6212882;23;20091;-77
2022/10/01 05:45:30;;;;;;;13.13;8.80;;;;;;;-145.18;100.00;46638.91;6213382;23;20389;-78
2022/10/01 05:48:01;;;;;;;16.20;9.27;;;;;;;-145.18;100.00;46640.88;6211254;23;20036;-78
2022/10/01 05:50:32;;;;;;;11.90;8.73;;;;;;;-145.18;100.00;46642.81;6211637;23;20043;-78
2022/10/01 05:53:01;;;;;;;10.03;8.47;;;;;;;-145.18;100.00;46642.81;6213208;23;20047;-78
2022/10/01 05:55:33;;;;;;;16.20;9.90;;;;;;;-145.18;100.00;46642.81;6213300;23;20009;-78
2022/10/01 05:58:05;;;;;;;10.07;8.47;;;;;;;-145.18;100.00;46636.94;6212409;23;20080;-77
2022/10/01 06:00:32;;;;;;;13.00;8.77;;;;;;;-145.18;100.00;46638.91;6212898;23;20091;-78
2022/10/01 06:03:02;;;;;;;15.60;9.30;;;;;;;-145.18;100.00;46640.88;6212530;23;20027;-78
2022/10/01 06:05:33;;;;;;;13.37;8.73;;;;;;;-145.18;100.00;46646.72;6209337;23;20070;-77
2022/10/01 06:08:04;;;;;;;14.50;8.33;;;;;;;-145.18;100.00;46640.88;6211799;23;20000;-78
2022/10/01 06:10:31;;;;;;;10.63;8.27;;;;;;;-145.18;100.00;46638.91;6212616;23;20092;-78
2022/10/01 06:13:05;;;;;;;11.67;8.27;;;;;;;-145.18;100.00;46638.91;6211461;23;20017;-77
2022/10/01 06:15:39;;;;;;;11.37;7.83;;;;;;;-145.18;100.00;46642.81;6212289;23;20713;-78
2022/10/01 06:18:07;;;;;;;12.90;7.97;;;;;;;-145.18;100.00;46642.81;6211509;23;20020;-77
2022/10/01 06:20:34;;;;;;;11.33;8.23;;;;;;;-145.18;100.00;46644.78;6212846;23;20069;-78
2022/10/01 06:23:00;;;;;;;10.87;8.37;;;;;;;-145.18;100.00;46640.88;6212133;23;20005;-78
2022/10/01 06:25:28;;;;;;;13.70;7.53;;;;;;;-145.18;100.00;46638.91;6212268;23;20009;-77
2022/10/01 06:27:56;;;;;;;11.97;8.33;;;;;;;-145.18;100.00;46640.88;6210641;23;20036;-77
2022/10/01 06:30:26;;;;;;;19.23;8.30;;;;;;;-145.18;100.00;46638.91;6210985;23;20592;-77
2022/10/01 06:32:52;;;;;;;12.67;8.20;;;;;;;-145.18;100.00;46642.81;6212150;23;20004;-77
2022/10/01 06:35:19;;;;;;;13.40;8.20;;;;;;;-145.18;100.00;46638.91;6212267;23;20001;-77
2022/10/01 06:37:45;;;;;;;12.70;7.83;;;;;;;-145.18;100.00;46636.94;6211638;23;20312;-77
2022/10/01 06:40:11;;;;;;;15.43;7.57;;;;;;;-145.18;100.00;46636.94;6212228;23;20012;-77
2022/10/01 06:42:36;;;;;;;13.13;7.90;;;;;;;-145.18;100.00;46638.91;6212646;23;20000;-77
2022/10/01 06:45:02;;;;;;;14.13;7.23;;;;;;;-145.18;100.00;46638.91;6211054;23;20016;-77
2022/10/01 06:47:28;;;;;;;15.03;9.00;;;;;;;-145.18;100.00;46636.94;6235295;23;20012;-77
2022/10/01 06:50:03;;;;;;;15.17;7.77;;;;;;;-145.18;100.00;46636.94;6210962;23;20024;-77
2022/10/01 06:55:13;;;;;;;13.77;7.83;;;;;;;-145.18;100.00;46636.94;6210991;23;20067;-78
2022/10/01 06:57:39;;;;;;;14.30;7.83;;;;;;;-145.18;100.00;46638.91;6212080;23;20024;-78
2022/10/01 07:00:04;;;;;;;16.87;7.27;;;;;;;-145.18;100.00;46638.91;6212384;23;20016;-78
2022/10/01 07:02:31;;;;;;;17.90;8.20;;;;;;;-145.18;100.00;46633.06;6212660;23;20051;-78
2022/10/01 07:04:58;;;;;;;12.50;7.40;;;;;;;-145.18;100.00;46635.00;6212411;23;20017;-78
2022/10/01 07:07:29;;;;;;;13.63;7.80;;;;;;;-145.18;100.00;46636.94;6212692;23;20008;-78
2022/10/01 07:09:54;;;;;;;12.60;8.57;;;;;;;-145.18;100.00;46640.88;6212335;23;20012;-77
2022/10/01 07:12:19;;;;;;;21.57;9.37;;;;;;;-145.18;100.00;46640.88;6212375;23;20004;-78
2022/10/01 07:14:53;;;;;;;16.13;10.00;;;;;;;-145.18;100.00;46636.94;6212688;23;20342;-77
2022/10/01 07:17:23;;;;;;;18.23;9.43;;;;;;;-145.18;100.00;46638.91;6212579;23;20545;-77
2022/10/01 07:19:48;;;;;;;17.93;9.07;;;;;;;-145.18;100.00;46635.00;6212415;23;20012;-77
2022/10/01 07:22:14;;;;;;;12.33;8.40;;;;;;;-145.18;100.00;46638.91;6211153;23;20024;-77
2022/10/01 07:24:39;;;;;;;18.13;9.00;;;;;;;-145.18;100.00;46642.81;6211786;23;20009;-78
2022/10/01 07:27:06;;;;;;;25.13;10.13;;;;;;;-145.18;100.00;46640.88;6211413;23;20012;-75
2022/10/01 07:29:31;;;;;;;20.27;8.63;;;;;;;-145.18;100.00;46640.88;6211613;23;20422;-75
2022/10/01 07:31:58;;;;;;;11.43;6.73;;;;;;;-145.18;100.00;46642.81;6235997;23;20096;-79
2022/10/01 07:34:29;;;;;;;13.63;7.23;;;;;;;-145.18;100.00;46638.91;6212050;23;20390;-80
2022/10/01 07:36:55;;;;;;;10.23;6.60;;;;;;;-145.18;100.00;46640.88;6212415;23;20013;-78
2022/10/01 07:39:21;;;;;;;11.17;6.47;;;;;;;-145.18;100.00;46640.88;6209844;23;20035;-78
2022/10/01 07:41:47;;;;;;;15.73;5.33;;;;;;;-145.18;100.00;46640.88;6211782;23;20005;-78
2022/10/01 07:44:12;;;;;;;8.23;3.93;;;;;;;-145.18;100.00;46644.78;6211604;23;20020;-81
2022/10/01 07:46:38;;;;;;;5.93;3.37;;;;;;;-145.18;100.00;46644.78;6212484;23;20047;-80
2022/10/01 07:49:04;;;;;;;12.20;4.07;;;;;;;-145.18;100.00;46642.81;6211606;23;20007;-80
2022/10/01 07:51:30;;;;;;;12.07;3.80;;;;;;;-145.18;100.00;46638.91;6212133;23;20072;-80
2022/10/01 07:53:56;;;;;;;5.07;2.40;;;;;;;-145.18;100.00;46638.91;6211663;23;20082;-80
2022/10/01 07:56:22;;;;;;;8.90;2.40;;;;;;;-145.18;100.00;46635.00;6211814;23;20005;-80
2022/10/01 07:58:47;;;;;;;6.57;1.90;;;;;;;-145.18;100.00;46638.91;6235085;23;20009;-80
2022/10/01 08:01:13;;;;;;;5.40;1.47;;;;;;;-145.18;100.00;46638.91;6211386;23;20016;-79
2022/10/01 08:03:38;;;;;;;4.23;1.40;;;;;;;-145.18;100.00;46636.94;6211343;23;20012;-80
2022/10/01 08:06:05;;;;;;;11.93;2.50;;;;;;;-145.18;100.00;46635.00;6211939;23;20513;-80
2022/10/01 08:08:31;;;;;;;5.30;1.70;;;;;;;-145.18;100.00;46640.88;6210027;23;20058;-80
2022/10/01 08:11:00;;;;;;;6.13;1.33;;;;;;;-145.18;100.00;46640.88;6210298;23;20075;-78
2022/10/01 08:13:27;;;;;;;6.03;1.53;;;;;;;-145.18;100.00;46642.81;6209609;23;20019;-78
2022/10/01 08:15:53;;;;;;;7.33;2.67;;;;;;;-145.18;100.00;46642.81;6210584;23;20394;-79
2022/10/01 08:18:22;;;;;;;7.10;1.80;;;;;;;-145.18;100.00;46640.88;6211709;23;20103;-79
2022/10/01 08:20:48;;;;;;;7.43;2.10;;;;;;;-145.18;100.00;46642.81;6212586;23;20039;-78
2022/10/01 08:23:15;;;;;;;8.17;2.10;;;;;;;-145.18;100.00;46646.72;6210761;23;20005;-78
2022/10/01 08:25:48;;;;;;;9.90;1.67;;;;;;;-145.18;100.00;46642.81;6212339;23;20004;-79
2022/10/01 08:28:24;;;;;;;9.27;2.17;;;;;;;-145.18;100.00;46646.72;6211387;23;20674;-78
2022/10/01 08:30:56;;;;;;;8.05;1.90;;;;;;;-145.18;100.00;46646.72;6212111;23;20043;-79
2022/10/01 08:33:23;;;;;;;8.10;2.73;;;;;;;-145.18;100.00;46644.78;6211471;23;20012;-79
2022/10/01 08:35:49;;;;;;;8.40;1.70;;;;;;;-145.18;100.00;46646.72;6210765;23;20056;-80
2022/10/01 08:38:14;;;;;;;9.40;1.57;;;;;;;-145.18;100.00;46650.63;6210414;23;20013;-80
2022/10/01 08:40:51;;;;;;;9.57;1.83;;;;;;;-145.18;100.00;46646.72;6210708;23;20024;-80
2022/10/01 08:43:29;;;;;;;11.70;2.10;;;;;;;-145.18;100.00;46646.72;6210554;23;20016;-80
2022/10/01 08:45:59;;;;;;;9.53;1.83;;;;;;;-145.18;100.00;46648.69;6211511;23;20000;-80
2022/10/01 08:48:42;;;;;;;11.07;2.37;;;;;;;-145.18;100.00;46650.63;6210476;23;20005;-80
2022/10/01 08:51:38;;;;;;;11.00;2.37;;;;;;;-145.18;100.00;46650.63;6210890;23;20062;-81
2022/10/01 08:54:18;;;;;;;13.40;2.60;;;;;;;-145.18;100.00;46656.50;6153146;23;20481;-80
2022/10/01 08:56:46;;;;;;;9.63;1.90;;;;;;;-145.18;100.00;46656.50;6211943;23;20359;-80
2022/10/01 08:59:30;;;;;;;16.00;3.17;;;;;;;-145.18;100.00;46658.44;6211256;23;20005;-80
2022/10/01 09:01:57;;;;;;;14.10;2.23;;;;;;;-145.18;100.00;46654.53;6212304;23;20000;-80
2022/10/01 09:04:24;;;;;;;16.47;3.13;;;;;;;-145.18;100.00;46656.50;6212054;23;20024;-79
2022/10/01 09:06:58;;;;;;;13.10;2.30;;;;;;;-145.18;100.00;46662.34;6214089;23;20071;-80
2022/10/01 09:09:43;;;;;;;15.60;1.90;;;;;;;-145.18;100.00;46656.50;6213310;23;20008;-80
2022/10/01 09:12:23;;;;;;;12.57;1.80;;;;;;;-145.18;100.00;46662.34;6212049;23;20474;-79
2022/10/01 09:15:02;;;;;;;11.23;1.87;;;;;;;-145.18;100.00;46658.44;6210867;23;20469;-79
2022/10/01 09:17:55;;;;;;;13.93;1.80;;;;;;;-145.18;100.00;46666.25;6212991;23;20054;-79
2022/10/01 09:20:45;;;;;;;18.90;3.37;;;;;;;-145.18;100.00;46662.34;6213394;23;20095;-79
2022/10/01 09:23:33;;;;;;;18.60;3.07;;;;;;;-145.18;100.00;46668.22;6211313;23;20067;-79
2022/10/01 09:25:59;;;;;;;13.50;1.87;;;;;;;-145.18;100.00;46670.16;6213213;23;20008;-77
2022/10/01 09:28:32;;;;;;;13.37;2.43;;;;;;;-145.18;100.00;46670.16;6213138;23;20012;-77
2022/10/01 09:31:16;;;;;;;13.23;2.93;;;;;;;-145.18;100.00;46676.03;6213459;23;20495;-76
2022/10/01 09:34:08;;;;;;;11.77;1.77;;;;;;;-145.18;100.00;46679.94;6213283;23;20004;-76
2022/10/01 09:36:46;;;;;;;16.67;2.00;;;;;;;-145.18;100.00;46677.97;6213894;23;20350;-76
2022/10/01 09:39:20;;;;;;;9.00;1.73;;;;;;;-145.18;100.00;46681.88;6213327;23;20011;-75
2022/10/01 09:41:47;;;;;;;21.23;2.10;;;;;;;-145.18;100.00;46683.84;6213876;23;20001;-76
2022/10/01 09:44:19;;;;;;;9.93;1.83;;;;;;;-145.18;100.00;46674.06;6213262;23;20008;-76
2022/10/01 09:46:45;;;;;;;13.97;2.27;;;;;;;-145.18;100.00;46677.97;6213512;23;20111;-76
2022/10/01 09:49:53;;;;;;;13.90;2.10;;;;;;;-145.18;100.00;46662.34;6212634;23;20016;-76
2022/10/01 09:52:29;;;;;;;11.47;2.70;;;;;;;-145.18;100.00;46601.78;6211713;23;20012;-75
2022/10/01 09:55:13;;;;;;;13.20;2.10;;;;;;;-145.18;100.00;46595.94;6213076;23;20004;-75
2022/10/01 09:57:43;;;;;;;9.37;1.80;;;;;;;-145.18;100.00;46574.44;6213309;23;20019;-75
2022/10/01 10:00:16;;;;;;;13.27;3.07;;;;;;;-145.18;100.00;46576.41;6212854;23;19996;-75
2022/10/01 10:02:46;;;;;;;16.40;2.23;;;;;;;-145.18;100.00;46554.91;6213624;23;20104;-74
2022/10/01 10:05:23;;;;;;;10.87;2.17;;;;;;;-145.18;100.00;46562.72;6212800;23;20444;-76
2022/10/01 10:08:09;;;;;;;13.10;2.40;;;;;;;-145.18;100.00;46560.78;6213301;23;20452;-75
2022/10/01 10:10:38;;;;;;;12.68;2.10;;;;;;;-145.18;100.00;46556.88;6213093;23;20005;-74
2022/10/01 10:13:13;;;;;;;16.03;1.90;;;;;;;-145.18;100.00;46556.88;6212987;23;20337;-74
2022/10/01 10:15:50;;;;;;;14.70;1.95;;;;;;;-145.18;100.00;46562.72;6212022;23;20012;-74
2022/10/01 10:18:21;;;;;;;18.67;3.10;;;;;;;-145.18;100.00;46552.97;6213249;23;20031;-74
2022/10/01 10:20:51;;;;;;;14.17;2.43;;;;;;;-145.18;100.00;46554.91;6213647;23;20005;-74
2022/10/01 10:23:19;;;;;;;13.30;2.60;;;;;;;-145.18;100.00;46554.91;6213219;23;20004;-74
2022/10/01 10:26:01;;;;;;;13.43;2.23;;;;;;;-145.18;100.00;46554.91;6213202;23;20001;-74
2022/10/01 10:28:37;;;;;;;12.40;1.63;;;;;;;-145.18;100.00;46558.81;6212308;23;20337;-74
2022/10/01 10:31:10;;;;;;;11.63;2.00;;;;;;;-145.18;100.00;46562.72;6212827;23;20157;-74
2022/10/01 10:33:36;;;;;;;11.60;2.30;;;;;;;-145.18;100.00;46564.69;6210315;23;20005;-74
2022/10/01 10:36:05;;;;;;;10.40;1.80;;;;;;;-145.18;100.00;46566.63;6211757;23;20364;-74
2022/10/01 10:38:33;;;;;;;7.87;1.63;;;;;;;-145.18;100.00;46570.53;6212432;23;20015;-75
2022/10/01 10:40:59;;;;;;;12.87;1.40;;;;;;;-145.18;100.00;46584.22;6210338;23;20008;-75
2022/10/01 10:43:33;;;;;;;15.20;2.13;;;;;;;-145.18;100.00;46578.34;6206112;23;20004;-75
2022/10/01 10:45:59;;;;;;;8.23;1.77;;;;;;;-145.18;100.00;46580.31;6212992;23;20028;-74
2022/10/01 10:48:31;;;;;;;11.20;2.50;;;;;;;-145.18;100.00;46582.25;6211580;23;20023;-74
2022/10/01 10:51:02;;;;;;;14.13;2.03;;;;;;;-145.18;100.00;46570.53;6211797;23;20007;-75
2022/10/01 10:53:37;;;;;;;8.07;1.90;;;;;;;-145.18;100.00;46584.22;6210703;23;20789;-74
2022/10/01 10:56:05;;;;;;;10.95;1.65;;;;;;;-145.18;100.00;46590.06;6210275;23;20004;-75
2022/10/01 10:58:33;;;;;;;12.77;2.03;;;;;;;-145.18;100.00;46582.25;6209096;23;20015;-75
2022/10/01 11:01:08;;;;;;;12.77;2.07;;;;;;;-145.18;100.00;46601.78;6209837;23;20013;-75
2022/10/01 11:03:36;;;;;;;14.05;2.03;;;;;;;-145.18;100.00;46593.97;6209395;23;20023;-75
2022/10/01 11:06:13;;;;;;;12.77;1.83;;;;;;;-145.18;100.00;46588.13;6210094;23;20086;-75
2022/10/01 11:08:40;;;;;;;11.43;2.17;;;;;;;-145.18;100.00;46588.13;6205731;23;20010;-75
2022/10/01 11:11:42;;;;;;;16.27;2.20;;;;;;;-145.18;100.00;46574.44;6209763;23;20000;-75
2022/10/01 11:14:29;;;;;;;14.60;2.33;;;;;;;-145.18;100.00;46564.69;6209678;23;20012;-75
2022/10/01 11:17:34;;;;;;;14.07;2.50;;;;;;;-145.18;100.00;46578.34;6209230;23;20009;-75
2022/10/01 11:20:32;;;;;;;17.17;2.40;;;;;;;-145.18;100.00;46580.31;6210399;23;20465;-75
2022/10/01 11:23:38;;;;;;;19.97;2.60;;;;;;;-145.18;100.00;46592.03;6209627;23;20325;-75
2022/10/01 11:26:21;;;;;;;13.57;2.73;;;;;;;-145.18;100.00;46590.06;6211488;23;20088;-75